sensor_id;sensor_type;location;lat;lon;timestamp;temperature;humidity
10010;DHT22;5044;48.652;9.250;2023-05-07T00:00:28;13.80;99.90
10010;DHT22;5044;48.652;9.250;2023-05-07T00:02:56;13.60;99.90
10010;DHT22;5044;48.652;9.250;2023-05-07T00:05:23;13.70;99.90
10010;DHT22;5044;48.652;9.250;2023-05-07T00:07:50;13.60;99.90
10010;DHT22;5044;48.652;9.250;2023-05-07T00:10:18;13.60;99.90
10010;DHT22;5044;48.652;9.250;2023-05-07T00:12:45;13.50;99.90
10010;DHT22;5044;48.652;9.250;2023-05-07T00:15:12;13.40;99.90
10010;DHT22;5044;48.652;9.250;2023-05-07T00:17:39;13.70;99.90
10010;DHT22;5044;48.652;9.250;2023-05-07T00:20:08;13.50;99.90
10010;DHT22;5044;48.652;9.250;2023-05-07T00:22:35;13.50;99.90
10010;DHT22;5044;48.652;9.250;2023-05-07T00:25:02;13.50;99.90
10010;DHT22;5044;48.652;9.250;2023-05-07T00:27:29;13.40;99.90
10010;DHT22;5044;48.652;9.250;2023-05-07T00:29:56;13.30;99.90
10010;DHT22;5044;48.652;9.250;2023-05-07T00:32:23;13.20;99.90
10010;DHT22;5044;48.652;9.250;2023-05-07T00:34:50;13.20;99.90
10010;DHT22;5044;48.652;9.250;2023-05-07T00:37:18;13.20;99.90
10010;DHT22;5044;48.652;9.250;2023-05-07T00:39:45;13.20;99.90
10010;DHT22;5044;48.652;9.250;2023-05-07T00:42:12;13.20;99.90
10010;DHT22;5044;48.652;9.250;2023-05-07T00:44:40;13.10;99.90
10010;DHT22;5044;48.652;9.250;2023-05-07T00:47:07;13.10;99.90
10010;DHT22;5044;48.652;9.250;2023-05-07T00:49:38;13.10;99.90
10010;DHT22;5044;48.652;9.250;2023-05-07T00:52:06;13.10;99.90
10010;DHT22;5044;48.652;9.250;2023-05-07T00:54:35;13.10;99.90
10010;DHT22;5044;48.652;9.250;2023-05-07T00:57:03;13.30;99.90
10010;DHT22;5044;48.652;9.250;2023-05-07T00:59:31;13.20;99.90
10010;DHT22;5044;48.652;9.250;2023-05-07T01:01:58;13.20;99.90
10010;DHT22;5044;48.652;9.250;2023-05-07T01:04:26;13.20;99.90
10010;DHT22;5044;48.652;9.250;2023-05-07T01:06:53;13.10;99.90
10010;DHT22;5044;48.652;9.250;2023-05-07T01:09:21;13.30;99.90
10010;DHT22;5044;48.652;9.250;2023-05-07T01:11:50;13.10;99.90
10010;DHT22;5044;48.652;9.250;2023-05-07T01:14:18;13.10;99.90
10010;DHT22;5044;48.652;9.250;2023-05-07T01:16:46;13.10;99.90
10010;DHT22;5044;48.652;9.250;2023-05-07T01:19:14;13.10;99.90
10010;DHT22;5044;48.652;9.250;2023-05-07T01:21:46;13.10;99.90
10010;DHT22;5044;48.652;9.250;2023-05-07T01:24:15;13.10;99.90
10010;DHT22;5044;48.652;9.250;2023-05-07T01:26:43;13.10;99.90
10010;DHT22;5044;48.652;9.250;2023-05-07T01:29:10;13.00;99.90
10010;DHT22;5044;48.652;9.250;2023-05-07T01:31:37;13.00;99.90
10010;DHT22;5044;48.652;9.250;2023-05-07T01:34:06;13.00;99.90
10010;DHT22;5044;48.652;9.250;2023-05-07T01:36:35;13.00;99.90
10010;DHT22;5044;48.652;9.250;2023-05-07T01:39:03;13.00;99.90
10010;DHT22;5044;48.652;9.250;2023-05-07T01:41:32;13.00;99.90
10010;DHT22;5044;48.652;9.250;2023-05-07T01:43:59;13.00;99.90
10010;DHT22;5044;48.652;9.250;2023-05-07T01:46:27;13.00;99.90
10010;DHT22;5044;48.652;9.250;2023-05-07T01:48:54;13.00;99.90
10010;DHT22;5044;48.652;9.250;2023-05-07T01:51:21;13.00;99.90
10010;DHT22;5044;48.652;9.250;2023-05-07T01:53:48;12.90;99.90
10010;DHT22;5044;48.652;9.250;2023-05-07T01:56:16;12.90;99.90
10010;DHT22;5044;48.652;9.250;2023-05-07T01:58:45;12.90;99.90
10010;DHT22;5044;48.652;9.250;2023-05-07T02:01:13;12.80;99.90
10010;DHT22;5044;48.652;9.250;2023-05-07T02:03:40;12.80;99.90
10010;DHT22;5044;48.652;9.250;2023-05-07T02:06:06;12.70;99.90
10010;DHT22;5044;48.652;9.250;2023-05-07T02:08:33;12.70;99.90
10010;DHT22;5044;48.652;9.250;2023-05-07T02:11:00;12.60;99.90
10010;DHT22;5044;48.652;9.250;2023-05-07T02:13:29;12.70;99.90
10010;DHT22;5044;48.652;9.250;2023-05-07T02:15:58;12.70;99.90
10010;DHT22;5044;48.652;9.250;2023-05-07T02:18:25;12.60;99.90
10010;DHT22;5044;48.652;9.250;2023-05-07T02:20:52;12.50;99.90
10010;DHT22;5044;48.652;9.250;2023-05-07T02:23:19;12.50;99.90
10010;DHT22;5044;48.652;9.250;2023-05-07T02:25:45;12.60;99.90
10010;DHT22;5044;48.652;9.250;2023-05-07T02:28:12;12.60;99.90
10010;DHT22;5044;48.652;9.250;2023-05-07T02:30:39;12.70;99.90
10010;DHT22;5044;48.652;9.250;2023-05-07T02:33:08;12.80;99.90
10010;DHT22;5044;48.652;9.250;2023-05-07T02:35:35;12.70;99.90
10010;DHT22;5044;48.652;9.250;2023-05-07T02:38:01;12.70;99.90
10010;DHT22;5044;48.652;9.250;2023-05-07T02:40:28;12.60;99.90
10010;DHT22;5044;48.652;9.250;2023-05-07T02:42:59;12.50;99.90
10010;DHT22;5044;48.652;9.250;2023-05-07T02:45:26;12.60;99.90
10010;DHT22;5044;48.652;9.250;2023-05-07T02:47:53;12.60;99.90
10010;DHT22;5044;48.652;9.250;2023-05-07T02:50:22;12.50;99.90
10010;DHT22;5044;48.652;9.250;2023-05-07T02:52:49;12.40;99.90
10010;DHT22;5044;48.652;9.250;2023-05-07T02:55:16;12.40;99.90
10010;DHT22;5044;48.652;9.250;2023-05-07T02:57:42;12.40;99.90
10010;DHT22;5044;48.652;9.250;2023-05-07T03:00:14;12.40;99.90
10010;DHT22;5044;48.652;9.250;2023-05-07T03:02:41;12.30;99.90
10010;DHT22;5044;48.652;9.250;2023-05-07T03:05:08;12.20;99.90
10010;DHT22;5044;48.652;9.250;2023-05-07T03:07:36;12.20;99.90
10010;DHT22;5044;48.652;9.250;2023-05-07T03:10:04;12.20;99.90
10010;DHT22;5044;48.652;9.250;2023-05-07T03:12:31;12.20;99.90
10010;DHT22;5044;48.652;9.250;2023-05-07T03:14:58;12.10;99.90
10010;DHT22;5044;48.652;9.250;2023-05-07T03:17:25;12.10;99.90
10010;DHT22;5044;48.652;9.250;2023-05-07T03:19:52;12.10;99.90
10010;DHT22;5044;48.652;9.250;2023-05-07T03:22:19;12.10;99.90
10010;DHT22;5044;48.652;9.250;2023-05-07T03:24:47;12.20;99.90
10010;DHT22;5044;48.652;9.250;2023-05-07T03:27:14;12.00;99.90
10010;DHT22;5044;48.652;9.250;2023-05-07T03:29:41;11.90;99.90
10010;DHT22;5044;48.652;9.250;2023-05-07T03:32:07;11.90;99.90
10010;DHT22;5044;48.652;9.250;2023-05-07T03:34:34;11.80;99.90
10010;DHT22;5044;48.652;9.250;2023-05-07T03:37:01;11.90;99.40
10010;DHT22;5044;48.652;9.250;2023-05-07T03:39:28;11.80;99.80
10010;DHT22;5044;48.652;9.250;2023-05-07T03:41:57;11.70;99.60
10010;DHT22;5044;48.652;9.250;2023-05-07T03:44:24;11.80;99.90
10010;DHT22;5044;48.652;9.250;2023-05-07T03:46:51;11.70;99.90
10010;DHT22;5044;48.652;9.250;2023-05-07T03:49:17;11.80;99.90
10010;DHT22;5044;48.652;9.250;2023-05-07T03:51:44;11.70;99.90
10010;DHT22;5044;48.652;9.250;2023-05-07T03:54:11;11.70;99.90
10010;DHT22;5044;48.652;9.250;2023-05-07T03:56:38;11.60;99.50
10010;DHT22;5044;48.652;9.250;2023-05-07T03:59:07;11.70;98.10
10010;DHT22;5044;48.652;9.250;2023-05-07T04:01:34;11.60;99.90
10010;DHT22;5044;48.652;9.250;2023-05-07T04:04:01;11.50;99.90
10010;DHT22;5044;48.652;9.250;2023-05-07T04:06:28;11.50;99.90
10010;DHT22;5044;48.652;9.250;2023-05-07T04:08:55;11.50;99.90
10010;DHT22;5044;48.652;9.250;2023-05-07T04:11:22;11.40;98.80
10010;DHT22;5044;48.652;9.250;2023-05-07T04:13:49;11.40;99.90
10010;DHT22;5044;48.652;9.250;2023-05-07T04:16:20;11.50;99.90
10010;DHT22;5044;48.652;9.250;2023-05-07T04:18:47;11.60;99.90
10010;DHT22;5044;48.652;9.250;2023-05-07T04:21:15;11.70;99.90
10010;DHT22;5044;48.652;9.250;2023-05-07T04:23:42;11.40;99.90
10010;DHT22;5044;48.652;9.250;2023-05-07T04:26:09;11.30;99.90
10010;DHT22;5044;48.652;9.250;2023-05-07T04:28:36;11.40;99.90
10010;DHT22;5044;48.652;9.250;2023-05-07T04:31:02;11.40;99.90
10010;DHT22;5044;48.652;9.250;2023-05-07T04:33:31;11.30;99.90
10010;DHT22;5044;48.652;9.250;2023-05-07T04:35:58;11.60;99.90
10010;DHT22;5044;48.652;9.250;2023-05-07T04:38:28;11.20;99.90
10010;DHT22;5044;48.652;9.250;2023-05-07T04:40:56;11.30;99.90
10010;DHT22;5044;48.652;9.250;2023-05-07T04:43:25;11.20;99.90
10010;DHT22;5044;48.652;9.250;2023-05-07T04:45:52;11.30;99.90
10010;DHT22;5044;48.652;9.250;2023-05-07T04:48:19;11.30;99.90
10010;DHT22;5044;48.652;9.250;2023-05-07T04:50:49;11.30;99.90
10010;DHT22;5044;48.652;9.250;2023-05-07T04:53:16;11.20;99.90
10010;DHT22;5044;48.652;9.250;2023-05-07T04:55:43;11.20;99.90
10010;DHT22;5044;48.652;9.250;2023-05-07T04:58:10;11.10;99.90
10010;DHT22;5044;48.652;9.250;2023-05-07T05:00:37;11.20;99.90
10010;DHT22;5044;48.652;9.250;2023-05-07T05:03:04;11.50;99.90
10010;DHT22;5044;48.652;9.250;2023-05-07T05:05:31;11.10;99.90
10010;DHT22;5044;48.652;9.250;2023-05-07T05:07:59;11.10;99.90
10010;DHT22;5044;48.652;9.250;2023-05-07T05:10:26;11.10;99.90
10010;DHT22;5044;48.652;9.250;2023-05-07T05:12:53;11.30;99.90
10010;DHT22;5044;48.652;9.250;2023-05-07T05:15:20;11.10;99.90
10010;DHT22;5044;48.652;9.250;2023-05-07T05:17:47;11.20;99.90
10010;DHT22;5044;48.652;9.250;2023-05-07T05:20:14;11.60;99.90
10010;DHT22;5044;48.652;9.250;2023-05-07T05:22:41;11.20;99.90
10010;DHT22;5044;48.652;9.250;2023-05-07T05:25:09;11.30;99.90
10010;DHT22;5044;48.652;9.250;2023-05-07T05:27:36;11.40;99.90
10010;DHT22;5044;48.652;9.250;2023-05-07T05:30:04;11.60;99.90
10010;DHT22;5044;48.652;9.250;2023-05-07T05:32:31;11.80;99.90
10010;DHT22;5044;48.652;9.250;2023-05-07T05:34:58;12.00;99.90
10010;DHT22;5044;48.652;9.250;2023-05-07T05:37:25;12.30;99.90
10010;DHT22;5044;48.652;9.250;2023-05-07T05:39:52;12.40;99.90
10010;DHT22;5044;48.652;9.250;2023-05-07T05:42:21;12.70;99.90
10010;DHT22;5044;48.652;9.250;2023-05-07T05:44:48;12.90;99.90
10010;DHT22;5044;48.652;9.250;2023-05-07T05:47:15;13.20;99.90
10010;DHT22;5044;48.652;9.250;2023-05-07T05:49:42;13.40;99.90
10010;DHT22;5044;48.652;9.250;2023-05-07T05:52:11;13.70;99.90
10010;DHT22;5044;48.652;9.250;2023-05-07T05:54:38;13.80;99.90
10010;DHT22;5044;48.652;9.250;2023-05-07T05:57:05;14.00;99.90
10010;DHT22;5044;48.652;9.250;2023-05-07T05:59:33;14.30;99.90
10010;DHT22;5044;48.652;9.250;2023-05-07T06:02:00;14.50;99.90
10010;DHT22;5044;48.652;9.250;2023-05-07T06:04:27;14.70;99.90
10010;DHT22;5044;48.652;9.250;2023-05-07T06:06:54;15.00;99.90
10010;DHT22;5044;48.652;9.250;2023-05-07T06:09:22;15.20;99.90
10010;DHT22;5044;48.652;9.250;2023-05-07T06:11:49;15.20;99.90
10010;DHT22;5044;48.652;9.250;2023-05-07T06:14:16;15.60;99.90
10010;DHT22;5044;48.652;9.250;2023-05-07T06:16:44;15.90;99.90
10010;DHT22;5044;48.652;9.250;2023-05-07T06:19:11;16.10;99.90
10010;DHT22;5044;48.652;9.250;2023-05-07T06:21:39;16.30;99.90
10010;DHT22;5044;48.652;9.250;2023-05-07T06:24:06;16.50;99.90
10010;DHT22;5044;48.652;9.250;2023-05-07T06:26:33;16.80;99.90
10010;DHT22;5044;48.652;9.250;2023-05-07T06:29:00;17.00;99.90
10010;DHT22;5044;48.652;9.250;2023-05-07T06:31:30;17.30;99.90
10010;DHT22;5044;48.652;9.250;2023-05-07T06:33:59;17.50;99.90
10010;DHT22;5044;48.652;9.250;2023-05-07T06:36:27;18.00;99.90
10010;DHT22;5044;48.652;9.250;2023-05-07T06:41:54;18.30;99.00
10010;DHT22;5044;48.652;9.250;2023-05-07T06:44:21;18.60;97.30
10010;DHT22;5044;48.652;9.250;2023-05-07T06:46:48;18.90;98.30
10010;DHT22;5044;48.652;9.250;2023-05-07T06:49:16;19.10;97.40
10010;DHT22;5044;48.652;9.250;2023-05-07T06:51:43;19.30;94.60
10010;DHT22;5044;48.652;9.250;2023-05-07T06:54:10;19.40;97.00
10010;DHT22;5044;48.652;9.250;2023-05-07T06:56:37;19.50;96.20
10010;DHT22;5044;48.652;9.250;2023-05-07T06:59:04;19.60;96.20
10010;DHT22;5044;48.652;9.250;2023-05-07T07:01:31;19.80;96.00
10010;DHT22;5044;48.652;9.250;2023-05-07T07:03:57;20.10;95.00
10010;DHT22;5044;48.652;9.250;2023-05-07T07:06:26;20.30;94.50
10010;DHT22;5044;48.652;9.250;2023-05-07T07:08:52;20.40;93.60
10010;DHT22;5044;48.652;9.250;2023-05-07T07:11:19;20.50;94.20
10010;DHT22;5044;48.652;9.250;2023-05-07T07:13:46;20.80;94.10
10010;DHT22;5044;48.652;9.250;2023-05-07T07:16:13;21.00;92.10
10010;DHT22;5044;48.652;9.250;2023-05-07T07:18:40;21.10;92.20
10010;DHT22;5044;48.652;9.250;2023-05-07T07:21:06;21.30;91.90
10010;DHT22;5044;48.652;9.250;2023-05-07T07:23:34;21.50;90.50
10010;DHT22;5044;48.652;9.250;2023-05-07T07:26:01;21.80;91.50
10010;DHT22;5044;48.652;9.250;2023-05-07T07:28:28;22.00;91.70
10010;DHT22;5044;48.652;9.250;2023-05-07T07:30:55;22.20;91.70
10010;DHT22;5044;48.652;9.250;2023-05-07T07:33:22;22.50;91.80
10010;DHT22;5044;48.652;9.250;2023-05-07T07:35:48;22.80;90.60
10010;DHT22;5044;48.652;9.250;2023-05-07T07:38:15;23.00;90.20
10010;DHT22;5044;48.652;9.250;2023-05-07T07:40:43;23.30;88.20
10010;DHT22;5044;48.652;9.250;2023-05-07T07:43:11;23.40;89.10
10010;DHT22;5044;48.652;9.250;2023-05-07T07:45:38;23.80;88.00
10010;DHT22;5044;48.652;9.250;2023-05-07T07:48:05;23.80;85.90
10010;DHT22;5044;48.652;9.250;2023-05-07T07:50:32;23.90;88.20
10010;DHT22;5044;48.652;9.250;2023-05-07T07:52:59;24.20;86.50
10010;DHT22;5044;48.652;9.250;2023-05-07T07:55:28;24.40;87.00
10010;DHT22;5044;48.652;9.250;2023-05-07T07:57:58;24.60;74.90
10010;DHT22;5044;48.652;9.250;2023-05-07T08:00:27;24.70;83.70
10010;DHT22;5044;48.652;9.250;2023-05-07T08:02:53;24.90;81.40
10010;DHT22;5044;48.652;9.250;2023-05-07T08:05:28;25.10;82.90
10010;DHT22;5044;48.652;9.250;2023-05-07T08:07:56;25.50;80.10
10010;DHT22;5044;48.652;9.250;2023-05-07T08:10:23;25.60;74.30
10010;DHT22;5044;48.652;9.250;2023-05-07T08:12:51;25.60;79.90
10010;DHT22;5044;48.652;9.250;2023-05-07T08:15:19;25.80;76.90
10010;DHT22;5044;48.652;9.250;2023-05-07T08:17:46;26.10;71.30
10010;DHT22;5044;48.652;9.250;2023-05-07T08:20:13;26.30;75.80
10010;DHT22;5044;48.652;9.250;2023-05-07T08:22:40;26.30;67.60
10010;DHT22;5044;48.652;9.250;2023-05-07T08:25:08;26.30;71.90
10010;DHT22;5044;48.652;9.250;2023-05-07T08:27:35;26.80;68.70
10010;DHT22;5044;48.652;9.250;2023-05-07T08:30:02;27.00;69.40
10010;DHT22;5044;48.652;9.250;2023-05-07T08:32:31;27.40;72.40
10010;DHT22;5044;48.652;9.250;2023-05-07T08:34:58;27.20;70.10
10010;DHT22;5044;48.652;9.250;2023-05-07T08:37:25;27.70;68.20
10010;DHT22;5044;48.652;9.250;2023-05-07T08:39:51;28.10;68.10
10010;DHT22;5044;48.652;9.250;2023-05-07T08:42:19;28.30;66.90
10010;DHT22;5044;48.652;9.250;2023-05-07T08:44:47;28.50;64.80
10010;DHT22;5044;48.652;9.250;2023-05-07T08:47:15;28.70;59.50
10010;DHT22;5044;48.652;9.250;2023-05-07T08:49:44;28.50;62.90
10010;DHT22;5044;48.652;9.250;2023-05-07T08:52:12;28.70;60.10
10010;DHT22;5044;48.652;9.250;2023-05-07T08:54:39;29.00;64.20
10010;DHT22;5044;48.652;9.250;2023-05-07T08:57:06;28.80;58.40
10010;DHT22;5044;48.652;9.250;2023-05-07T08:59:32;28.80;63.30
10010;DHT22;5044;48.652;9.250;2023-05-07T09:02:00;29.20;64.20
10010;DHT22;5044;48.652;9.250;2023-05-07T09:04:27;29.60;63.40
10010;DHT22;5044;48.652;9.250;2023-05-07T09:06:56;29.80;58.00
10010;DHT22;5044;48.652;9.250;2023-05-07T09:09:29;29.70;63.90
10010;DHT22;5044;48.652;9.250;2023-05-07T09:11:57;29.70;58.00
10010;DHT22;5044;48.652;9.250;2023-05-07T09:14:25;30.00;64.00
10010;DHT22;5044;48.652;9.250;2023-05-07T09:16:52;30.60;57.60
10010;DHT22;5044;48.652;9.250;2023-05-07T09:19:22;30.80;60.80
10010;DHT22;5044;48.652;9.250;2023-05-07T09:21:59;31.10;56.80
10010;DHT22;5044;48.652;9.250;2023-05-07T09:24:27;31.20;57.10
10010;DHT22;5044;48.652;9.250;2023-05-07T09:26:59;31.50;56.20
10010;DHT22;5044;48.652;9.250;2023-05-07T09:29:28;31.50;57.20
10010;DHT22;5044;48.652;9.250;2023-05-07T09:32:00;31.70;53.60
10010;DHT22;5044;48.652;9.250;2023-05-07T09:34:28;31.50;54.30
10010;DHT22;5044;48.652;9.250;2023-05-07T09:36:56;31.70;54.10
10010;DHT22;5044;48.652;9.250;2023-05-07T09:39:25;31.70;52.90
10010;DHT22;5044;48.652;9.250;2023-05-07T09:41:52;31.80;51.40
10010;DHT22;5044;48.652;9.250;2023-05-07T09:44:20;31.80;53.00
10010;DHT22;5044;48.652;9.250;2023-05-07T09:46:54;32.00;51.50
10010;DHT22;5044;48.652;9.250;2023-05-07T09:49:23;32.00;51.20
10010;DHT22;5044;48.652;9.250;2023-05-07T09:51:51;32.30;53.20
10010;DHT22;5044;48.652;9.250;2023-05-07T09:54:19;32.00;51.70
10010;DHT22;5044;48.652;9.250;2023-05-07T09:56:48;32.20;51.60
10010;DHT22;5044;48.652;9.250;2023-05-07T09:59:16;32.50;51.00
10010;DHT22;5044;48.652;9.250;2023-05-07T10:01:44;32.30;49.30
10010;DHT22;5044;48.652;9.250;2023-05-07T10:04:12;32.80;51.20
10010;DHT22;5044;48.652;9.250;2023-05-07T10:06:39;33.00;49.90
10010;DHT22;5044;48.652;9.250;2023-05-07T10:09:07;32.60;49.30
10010;DHT22;5044;48.652;9.250;2023-05-07T10:11:37;32.70;49.30
10010;DHT22;5044;48.652;9.250;2023-05-07T10:14:05;33.00;50.70
10010;DHT22;5044;48.652;9.250;2023-05-07T10:16:33;33.10;48.70
10010;DHT22;5044;48.652;9.250;2023-05-07T10:19:02;33.40;48.80
10010;DHT22;5044;48.652;9.250;2023-05-07T10:21:34;33.50;49.90
10010;DHT22;5044;48.652;9.250;2023-05-07T10:24:04;33.80;47.80
10010;DHT22;5044;48.652;9.250;2023-05-07T10:26:34;33.50;47.60
10010;DHT22;5044;48.652;9.250;2023-05-07T10:29:07;33.50;46.20
10010;DHT22;5044;48.652;9.250;2023-05-07T10:31:49;33.20;47.50
10010;DHT22;5044;48.652;9.250;2023-05-07T10:34:21;33.70;48.90
10010;DHT22;5044;48.652;9.250;2023-05-07T10:36:49;34.20;48.60
10010;DHT22;5044;48.652;9.250;2023-05-07T10:39:17;34.20;46.30
10010;DHT22;5044;48.652;9.250;2023-05-07T10:41:44;33.90;46.00
10010;DHT22;5044;48.652;9.250;2023-05-07T10:44:25;33.80;45.10
10010;DHT22;5044;48.652;9.250;2023-05-07T10:47:04;33.40;43.30
10010;DHT22;5044;48.652;9.250;2023-05-07T10:49:34;32.30;42.30
10010;DHT22;5044;48.652;9.250;2023-05-07T10:52:11;33.40;47.70
10010;DHT22;5044;48.652;9.250;2023-05-07T10:54:39;34.00;45.30
10010;DHT22;5044;48.652;9.250;2023-05-07T10:57:33;33.10;41.80
10010;DHT22;5044;48.652;9.250;2023-05-07T11:03:06;33.00;47.70
10010;DHT22;5044;48.652;9.250;2023-05-07T11:05:34;33.70;48.10
10010;DHT22;5044;48.652;9.250;2023-05-07T11:08:02;34.60;46.80
10010;DHT22;5044;48.652;9.250;2023-05-07T11:10:47;34.90;44.80
10010;DHT22;5044;48.652;9.250;2023-05-07T11:13:48;34.70;44.80
10010;DHT22;5044;48.652;9.250;2023-05-07T11:16:19;34.80;44.10
10010;DHT22;5044;48.652;9.250;2023-05-07T11:21:32;34.90;42.80
10010;DHT22;5044;48.652;9.250;2023-05-07T11:23:59;35.50;44.10
10010;DHT22;5044;48.652;9.250;2023-05-07T11:26:28;34.50;39.80
10010;DHT22;5044;48.652;9.250;2023-05-07T11:28:55;33.80;43.90
10010;DHT22;5044;48.652;9.250;2023-05-07T11:31:25;34.50;46.50
10010;DHT22;5044;48.652;9.250;2023-05-07T11:33:54;35.40;44.90
10010;DHT22;5044;48.652;9.250;2023-05-07T11:36:23;36.00;43.70
10010;DHT22;5044;48.652;9.250;2023-05-07T11:38:50;35.90;41.30
10010;DHT22;5044;48.652;9.250;2023-05-07T11:41:17;34.30;39.20
10010;DHT22;5044;48.652;9.250;2023-05-07T11:43:59;34.60;43.20
10010;DHT22;5044;48.652;9.250;2023-05-07T11:48:56;34.70;43.70
10010;DHT22;5044;48.652;9.250;2023-05-07T11:51:24;35.70;44.30
10010;DHT22;5044;48.652;9.250;2023-05-07T11:53:53;36.00;42.80
10010;DHT22;5044;48.652;9.250;2023-05-07T11:56:21;35.90;43.60
10010;DHT22;5044;48.652;9.250;2023-05-07T11:58:48;35.70;42.80
10010;DHT22;5044;48.652;9.250;2023-05-07T12:01:17;36.00;43.90
10010;DHT22;5044;48.652;9.250;2023-05-07T12:03:45;35.80;43.20
10010;DHT22;5044;48.652;9.250;2023-05-07T12:06:15;35.60;43.40
10010;DHT22;5044;48.652;9.250;2023-05-07T12:08:42;35.10;43.20
10010;DHT22;5044;48.652;9.250;2023-05-07T12:11:13;34.60;43.30
10010;DHT22;5044;48.652;9.250;2023-05-07T12:13:41;34.10;43.20
10010;DHT22;5044;48.652;9.250;2023-05-07T12:16:09;34.30;43.60
10010;DHT22;5044;48.652;9.250;2023-05-07T12:18:36;33.80;42.30
10010;DHT22;5044;48.652;9.250;2023-05-07T12:21:05;32.70;42.20
10010;DHT22;5044;48.652;9.250;2023-05-07T12:23:35;32.40;43.60
10010;DHT22;5044;48.652;9.250;2023-05-07T12:26:03;32.30;43.00
10010;DHT22;5044;48.652;9.250;2023-05-07T12:28:37;32.20;43.80
10010;DHT22;5044;48.652;9.250;2023-05-07T12:31:05;31.70;43.40
10010;DHT22;5044;48.652;9.250;2023-05-07T12:33:32;31.40;43.40
10010;DHT22;5044;48.652;9.250;2023-05-07T12:36:03;30.90;44.20
10010;DHT22;5044;48.652;9.250;2023-05-07T12:38:35;29.90;43.50
10010;DHT22;5044;48.652;9.250;2023-05-07T12:41:03;29.90;46.00
10010;DHT22;5044;48.652;9.250;2023-05-07T12:43:30;29.80;46.80
10010;DHT22;5044;48.652;9.250;2023-05-07T12:45:59;30.00;47.70
10010;DHT22;5044;48.652;9.250;2023-05-07T12:48:26;29.90;48.80
10010;DHT22;5044;48.652;9.250;2023-05-07T12:50:54;29.50;50.70
10010;DHT22;5044;48.652;9.250;2023-05-07T12:53:23;29.00;53.00
10010;DHT22;5044;48.652;9.250;2023-05-07T12:55:53;27.70;53.80
10010;DHT22;5044;48.652;9.250;2023-05-07T12:58:21;25.40;57.50
10010;DHT22;5044;48.652;9.250;2023-05-07T13:00:49;24.60;59.70
10010;DHT22;5044;48.652;9.250;2023-05-07T13:03:24;24.20;58.90
10010;DHT22;5044;48.652;9.250;2023-05-07T13:05:51;24.00;70.90
10010;DHT22;5044;48.652;9.250;2023-05-07T13:08:29;23.90;66.60
10010;DHT22;5044;48.652;9.250;2023-05-07T13:10:57;24.40;69.70
10010;DHT22;5044;48.652;9.250;2023-05-07T13:13:25;23.50;65.30
10010;DHT22;5044;48.652;9.250;2023-05-07T13:15:52;22.40;70.70
10010;DHT22;5044;48.652;9.250;2023-05-07T13:18:18;21.70;74.70
10010;DHT22;5044;48.652;9.250;2023-05-07T13:20:45;21.20;84.20
10010;DHT22;5044;48.652;9.250;2023-05-07T13:23:12;20.60;82.90
10010;DHT22;5044;48.652;9.250;2023-05-07T13:25:39;20.00;87.70
10010;DHT22;5044;48.652;9.250;2023-05-07T13:28:08;20.30;84.70
10010;DHT22;5044;48.652;9.250;2023-05-07T13:30:35;20.30;86.60
10010;DHT22;5044;48.652;9.250;2023-05-07T13:33:02;20.10;88.10
10010;DHT22;5044;48.652;9.250;2023-05-07T13:35:29;20.30;91.30
10010;DHT22;5044;48.652;9.250;2023-05-07T13:37:56;19.70;94.10
10010;DHT22;5044;48.652;9.250;2023-05-07T13:40:23;19.30;95.60
10010;DHT22;5044;48.652;9.250;2023-05-07T13:42:50;19.10;99.10
10010;DHT22;5044;48.652;9.250;2023-05-07T13:45:19;18.40;99.90
10010;DHT22;5044;48.652;9.250;2023-05-07T13:47:47;18.20;99.90
10010;DHT22;5044;48.652;9.250;2023-05-07T13:50:18;19.00;99.70
10010;DHT22;5044;48.652;9.250;2023-05-07T14:09:24;18.30;99.90
10010;DHT22;5044;48.652;9.250;2023-05-07T14:11:51;18.30;99.90
10010;DHT22;5044;48.652;9.250;2023-05-07T14:14:18;18.20;99.90
10010;DHT22;5044;48.652;9.250;2023-05-07T14:16:45;17.60;99.90
10010;DHT22;5044;48.652;9.250;2023-05-07T14:19:12;17.40;99.90
10010;DHT22;5044;48.652;9.250;2023-05-07T14:21:39;17.50;99.90
10010;DHT22;5044;48.652;9.250;2023-05-07T14:24:07;17.60;99.90
10010;DHT22;5044;48.652;9.250;2023-05-07T14:26:35;17.30;99.90
10010;DHT22;5044;48.652;9.250;2023-05-07T14:29:03;17.30;99.90
10010;DHT22;5044;48.652;9.250;2023-05-07T14:31:30;17.70;99.90
10010;DHT22;5044;48.652;9.250;2023-05-07T14:33:57;17.70;99.90
10010;DHT22;5044;48.652;9.250;2023-05-07T14:36:24;17.70;99.90
10010;DHT22;5044;48.652;9.250;2023-05-07T14:38:52;17.70;99.90
10010;DHT22;5044;48.652;9.250;2023-05-07T14:41:19;17.90;99.90
10010;DHT22;5044;48.652;9.250;2023-05-07T14:43:49;17.80;99.90
10010;DHT22;5044;48.652;9.250;2023-05-07T14:46:17;17.90;99.90
10010;DHT22;5044;48.652;9.250;2023-05-07T14:48:44;17.80;99.90
10010;DHT22;5044;48.652;9.250;2023-05-07T14:51:13;17.40;99.90
10010;DHT22;5044;48.652;9.250;2023-05-07T14:53:54;17.50;99.90
10010;DHT22;5044;48.652;9.250;2023-05-07T14:56:21;17.40;99.90
10010;DHT22;5044;48.652;9.250;2023-05-07T14:58:49;17.50;99.90
10010;DHT22;5044;48.652;9.250;2023-05-07T15:01:24;17.50;99.90
10010;DHT22;5044;48.652;9.250;2023-05-07T15:03:52;17.50;99.90
10010;DHT22;5044;48.652;9.250;2023-05-07T15:06:18;17.70;99.90
10010;DHT22;5044;48.652;9.250;2023-05-07T15:08:45;17.70;99.90
10010;DHT22;5044;48.652;9.250;2023-05-07T15:11:12;17.90;99.90
10010;DHT22;5044;48.652;9.250;2023-05-07T15:13:39;17.70;99.90
10010;DHT22;5044;48.652;9.250;2023-05-07T15:16:07;17.50;99.90
10010;DHT22;5044;48.652;9.250;2023-05-07T15:18:34;17.60;99.90
10010;DHT22;5044;48.652;9.250;2023-05-07T15:21:01;17.60;99.90
10010;DHT22;5044;48.652;9.250;2023-05-07T15:23:28;17.90;99.90
10010;DHT22;5044;48.652;9.250;2023-05-07T15:25:55;18.10;99.90
10010;DHT22;5044;48.652;9.250;2023-05-07T15:28:22;18.40;99.50
10010;DHT22;5044;48.652;9.250;2023-05-07T15:30:49;18.50;97.80
10010;DHT22;5044;48.652;9.250;2023-05-07T15:33:18;18.60;96.60
10010;DHT22;5044;48.652;9.250;2023-05-07T15:35:44;18.70;99.80
10010;DHT22;5044;48.652;9.250;2023-05-07T15:38:11;18.50;99.90
10010;DHT22;5044;48.652;9.250;2023-05-07T15:40:39;18.40;99.40
10010;DHT22;5044;48.652;9.250;2023-05-07T15:43:07;18.70;96.40
10010;DHT22;5044;48.652;9.250;2023-05-07T15:45:38;18.70;99.90
10010;DHT22;5044;48.652;9.250;2023-05-07T15:48:05;18.70;97.50
10010;DHT22;5044;48.652;9.250;2023-05-07T15:50:33;18.60;98.80
10010;DHT22;5044;48.652;9.250;2023-05-07T15:53:03;18.70;99.90
10010;DHT22;5044;48.652;9.250;2023-05-07T15:55:30;18.80;96.20
10010;DHT22;5044;48.652;9.250;2023-05-07T15:58:04;18.80;95.80
10010;DHT22;5044;48.652;9.250;2023-05-07T16:00:33;18.80;97.00
10010;DHT22;5044;48.652;9.250;2023-05-07T16:03:00;18.90;97.80
10010;DHT22;5044;48.652;9.250;2023-05-07T16:05:28;18.90;96.80
10010;DHT22;5044;48.652;9.250;2023-05-07T16:07:59;18.80;95.60
10010;DHT22;5044;48.652;9.250;2023-05-07T16:10:29;18.80;97.80
10010;DHT22;5044;48.652;9.250;2023-05-07T16:12:58;18.80;99.20
10010;DHT22;5044;48.652;9.250;2023-05-07T16:33:32;17.80;99.90
10010;DHT22;5044;48.652;9.250;2023-05-07T16:35:59;17.60;99.90